sensor_id;sensor_type;location;lat;lon;timestamp;P1;durP1;ratioP1;P2;durP2;ratioP2
7845;SDS011;3968;51.424;6.788;2022-08-05T00:00:34;7.75;;;4.20;;
7845;SDS011;3968;51.424;6.788;2022-08-05T00:03:00;6.10;;;4.28;;
7845;SDS011;3968;51.424;6.788;2022-08-05T00:05:26;6.50;;;4.40;;
7845;SDS011;3968;51.424;6.788;2022-08-05T00:07:52;7.30;;;4.43;;
7845;SDS011;3968;51.424;6.788;2022-08-05T00:10:17;7.22;;;4.82;;
7845;SDS011;3968;51.424;6.788;2022-08-05T00:12:43;7.80;;;4.50;;
7845;SDS011;3968;51.424;6.788;2022-08-05T00:15:09;8.82;;;4.40;;
7845;SDS011;3968;51.424;6.788;2022-08-05T00:17:35;8.70;;;4.78;;
7845;SDS011;3968;51.424;6.788;2022-08-05T00:20:01;8.38;;;4.35;;
7845;SDS011;3968;51.424;6.788;2022-08-05T00:22:26;7.40;;;4.82;;
7845;SDS011;3968;51.424;6.788;2022-08-05T00:24:52;10.60;;;4.95;;
7845;SDS011;3968;51.424;6.788;2022-08-05T00:27:18;10.60;;;4.70;;
7845;SDS011;3968;51.424;6.788;2022-08-05T00:29:43;10.38;;;5.68;;
7845;SDS011;3968;51.424;6.788;2022-08-05T00:32:09;11.65;;;5.50;;
7845;SDS011;3968;51.424;6.788;2022-08-05T00:34:37;8.13;;;4.55;;
7845;SDS011;3968;51.424;6.788;2022-08-05T00:37:04;9.00;;;4.97;;
7845;SDS011;3968;51.424;6.788;2022-08-05T00:39:29;9.18;;;5.07;;
7845;SDS011;3968;51.424;6.788;2022-08-05T00:41:55;10.00;;;5.90;;
7845;SDS011;3968;51.424;6.788;2022-08-05T00:44:21;9.93;;;5.65;;
7845;SDS011;3968;51.424;6.788;2022-08-05T00:46:47;9.23;;;5.40;;
7845;SDS011;3968;51.424;6.788;2022-08-05T00:49:13;10.50;;;5.60;;
7845;SDS011;3968;51.424;6.788;2022-08-05T00:51:42;15.52;;;5.18;;
7845;SDS011;3968;51.424;6.788;2022-08-05T00:54:08;9.05;;;5.25;;
7845;SDS011;3968;51.424;6.788;2022-08-05T00:56:36;8.05;;;4.60;;
7845;SDS011;3968;51.424;6.788;2022-08-05T00:59:01;9.63;;;5.03;;
7845;SDS011;3968;51.424;6.788;2022-08-05T01:01:27;9.65;;;5.32;;
7845;SDS011;3968;51.424;6.788;2022-08-05T01:03:53;9.50;;;4.93;;
7845;SDS011;3968;51.424;6.788;2022-08-05T01:06:18;7.40;;;4.95;;
7845;SDS011;3968;51.424;6.788;2022-08-05T01:08:44;10.70;;;5.20;;
7845;SDS011;3968;51.424;6.788;2022-08-05T01:11:11;7.07;;;5.03;;
7845;SDS011;3968;51.424;6.788;2022-08-05T01:16:28;7.65;;;4.85;;
7845;SDS011;3968;51.424;6.788;2022-08-05T01:24:40;10.32;;;4.75;;
7845;SDS011;3968;51.424;6.788;2022-08-05T01:30:16;6.97;;;4.55;;
7845;SDS011;3968;51.424;6.788;2022-08-05T01:32:43;8.77;;;4.82;;
7845;SDS011;3968;51.424;6.788;2022-08-05T01:35:15;8.95;;;5.60;;
7845;SDS011;3968;51.424;6.788;2022-08-05T01:37:44;7.55;;;5.43;;
7845;SDS011;3968;51.424;6.788;2022-08-05T01:40:13;7.10;;;5.28;;
7845;SDS011;3968;51.424;6.788;2022-08-05T01:42:41;12.65;;;6.03;;
7845;SDS011;3968;51.424;6.788;2022-08-05T01:45:08;6.68;;;5.50;;
7845;SDS011;3968;51.424;6.788;2022-08-05T01:47:36;11.35;;;6.18;;
7845;SDS011;3968;51.424;6.788;2022-08-05T01:50:04;8.55;;;5.60;;
7845;SDS011;3968;51.424;6.788;2022-08-05T01:52:32;5.95;;;5.00;;
7845;SDS011;3968;51.424;6.788;2022-08-05T01:55:03;9.30;;;5.70;;
7845;SDS011;3968;51.424;6.788;2022-08-05T01:57:32;13.60;;;6.05;;
7845;SDS011;3968;51.424;6.788;2022-08-05T02:00:02;7.30;;;5.82;;
7845;SDS011;3968;51.424;6.788;2022-08-05T02:02:31;9.20;;;5.85;;
7845;SDS011;3968;51.424;6.788;2022-08-05T02:05:00;9.45;;;5.97;;
7845;SDS011;3968;51.424;6.788;2022-08-05T02:07:30;8.27;;;5.43;;
7845;SDS011;3968;51.424;6.788;2022-08-05T02:09:57;7.63;;;5.25;;
7845;SDS011;3968;51.424;6.788;2022-08-05T02:15:40;8.80;;;5.68;;
7845;SDS011;3968;51.424;6.788;2022-08-05T02:18:19;6.90;;;5.22;;
7845;SDS011;3968;51.424;6.788;2022-08-05T02:20:51;10.48;;;5.95;;
7845;SDS011;3968;51.424;6.788;2022-08-05T02:23:21;8.68;;;5.80;;
7845;SDS011;3968;51.424;6.788;2022-08-05T02:25:50;10.15;;;5.97;;
7845;SDS011;3968;51.424;6.788;2022-08-05T02:28:23;7.28;;;6.10;;
7845;SDS011;3968;51.424;6.788;2022-08-05T02:30:52;9.45;;;5.50;;
7845;SDS011;3968;51.424;6.788;2022-08-05T02:33:21;9.80;;;5.63;;
7845;SDS011;3968;51.424;6.788;2022-08-05T02:35:49;12.90;;;6.00;;
7845;SDS011;3968;51.424;6.788;2022-08-05T02:38:17;11.02;;;6.25;;
7845;SDS011;3968;51.424;6.788;2022-08-05T02:40:43;7.55;;;5.53;;
7845;SDS011;3968;51.424;6.788;2022-08-05T02:43:10;9.57;;;5.50;;
7845;SDS011;3968;51.424;6.788;2022-08-05T02:45:37;8.32;;;6.30;;
7845;SDS011;3968;51.424;6.788;2022-08-05T02:48:05;9.00;;;6.57;;
7845;SDS011;3968;51.424;6.788;2022-08-05T02:50:32;9.07;;;5.90;;
7845;SDS011;3968;51.424;6.788;2022-08-05T02:53:00;13.40;;;7.25;;
7845;SDS011;3968;51.424;6.788;2022-08-05T02:55:26;7.25;;;6.55;;
7845;SDS011;3968;51.424;6.788;2022-08-05T02:57:53;10.60;;;6.13;;
7845;SDS011;3968;51.424;6.788;2022-08-05T03:00:20;11.20;;;6.95;;
7845;SDS011;3968;51.424;6.788;2022-08-05T03:02:46;14.93;;;8.30;;
7845;SDS011;3968;51.424;6.788;2022-08-05T03:05:13;11.32;;;8.13;;
7845;SDS011;3968;51.424;6.788;2022-08-05T03:07:40;12.98;;;7.32;;
7845;SDS011;3968;51.424;6.788;2022-08-05T03:10:07;11.38;;;8.10;;
7845;SDS011;3968;51.424;6.788;2022-08-05T03:12:35;11.07;;;7.32;;
7845;SDS011;3968;51.424;6.788;2022-08-05T03:15:02;9.90;;;6.97;;
7845;SDS011;3968;51.424;6.788;2022-08-05T03:17:29;9.05;;;7.50;;
7845;SDS011;3968;51.424;6.788;2022-08-05T03:19:55;8.98;;;6.13;;
7845;SDS011;3968;51.424;6.788;2022-08-05T03:22:21;14.43;;;7.05;;
7845;SDS011;3968;51.424;6.788;2022-08-05T03:24:47;8.95;;;6.72;;
7845;SDS011;3968;51.424;6.788;2022-08-05T03:27:14;11.05;;;7.20;;
7845;SDS011;3968;51.424;6.788;2022-08-05T03:29:40;9.20;;;7.05;;
7845;SDS011;3968;51.424;6.788;2022-08-05T03:32:07;10.43;;;6.50;;
7845;SDS011;3968;51.424;6.788;2022-08-05T03:34:33;8.43;;;6.47;;
7845;SDS011;3968;51.424;6.788;2022-08-05T03:37:00;8.60;;;6.57;;
7845;SDS011;3968;51.424;6.788;2022-08-05T03:39:27;10.57;;;6.72;;
7845;SDS011;3968;51.424;6.788;2022-08-05T03:41:54;10.25;;;6.65;;
7845;SDS011;3968;51.424;6.788;2022-08-05T03:44:20;9.25;;;6.53;;
7845;SDS011;3968;51.424;6.788;2022-08-05T03:46:46;10.18;;;6.43;;
7845;SDS011;3968;51.424;6.788;2022-08-05T03:49:12;8.93;;;6.78;;
7845;SDS011;3968;51.424;6.788;2022-08-05T03:51:38;13.43;;;6.22;;
7845;SDS011;3968;51.424;6.788;2022-08-05T03:56:50;9.93;;;6.80;;
7845;SDS011;3968;51.424;6.788;2022-08-05T03:59:18;10.35;;;7.55;;
7845;SDS011;3968;51.424;6.788;2022-08-05T04:01:50;15.13;;;7.43;;
7845;SDS011;3968;51.424;6.788;2022-08-05T04:04:17;11.43;;;7.47;;
7845;SDS011;3968;51.424;6.788;2022-08-05T04:06:45;11.38;;;7.68;;
7845;SDS011;3968;51.424;6.788;2022-08-05T04:09:11;9.18;;;7.45;;
7845;SDS011;3968;51.424;6.788;2022-08-05T04:11:38;10.93;;;7.05;;
7845;SDS011;3968;51.424;6.788;2022-08-05T04:14:04;11.27;;;7.53;;
7845;SDS011;3968;51.424;6.788;2022-08-05T04:16:31;10.50;;;8.53;;
7845;SDS011;3968;51.424;6.788;2022-08-05T04:18:57;14.52;;;8.88;;
7845;SDS011;3968;51.424;6.788;2022-08-05T04:21:23;11.18;;;8.57;;
7845;SDS011;3968;51.424;6.788;2022-08-05T04:23:48;16.23;;;9.65;;
7845;SDS011;3968;51.424;6.788;2022-08-05T04:26:14;14.52;;;11.32;;
7845;SDS011;3968;51.424;6.788;2022-08-05T04:28:40;18.75;;;12.73;;
7845;SDS011;3968;51.424;6.788;2022-08-05T04:31:06;17.15;;;10.82;;
7845;SDS011;3968;51.424;6.788;2022-08-05T04:33:32;16.02;;;10.82;;
7845;SDS011;3968;51.424;6.788;2022-08-05T04:35:57;16.10;;;11.32;;
7845;SDS011;3968;51.424;6.788;2022-08-05T04:38:23;18.13;;;11.23;;
7845;SDS011;3968;51.424;6.788;2022-08-05T04:40:49;14.70;;;10.73;;
7845;SDS011;3968;51.424;6.788;2022-08-05T04:43:15;14.13;;;11.60;;
7845;SDS011;3968;51.424;6.788;2022-08-05T04:45:40;14.90;;;12.02;;
7845;SDS011;3968;51.424;6.788;2022-08-05T04:48:07;16.40;;;11.70;;
7845;SDS011;3968;51.424;6.788;2022-08-05T04:50:52;15.13;;;10.70;;
7845;SDS011;3968;51.424;6.788;2022-08-05T04:53:18;14.68;;;11.48;;
7845;SDS011;3968;51.424;6.788;2022-08-05T04:55:44;15.10;;;11.73;;
7845;SDS011;3968;51.424;6.788;2022-08-05T04:58:11;22.73;;;13.30;;
7845;SDS011;3968;51.424;6.788;2022-08-05T05:00:38;16.90;;;12.30;;
7845;SDS011;3968;51.424;6.788;2022-08-05T05:03:05;17.17;;;12.00;;
7845;SDS011;3968;51.424;6.788;2022-08-05T05:05:32;15.00;;;11.27;;
7845;SDS011;3968;51.424;6.788;2022-08-05T05:07:58;14.20;;;10.73;;
7845;SDS011;3968;51.424;6.788;2022-08-05T05:10:41;14.77;;;11.48;;
7845;SDS011;3968;51.424;6.788;2022-08-05T05:13:13;15.48;;;11.93;;
7845;SDS011;3968;51.424;6.788;2022-08-05T05:15:40;15.32;;;11.07;;
7845;SDS011;3968;51.424;6.788;2022-08-05T05:18:07;13.73;;;11.63;;
7845;SDS011;3968;51.424;6.788;2022-08-05T05:20:33;15.73;;;12.50;;
7845;SDS011;3968;51.424;6.788;2022-08-05T05:23:00;15.05;;;11.93;;
7845;SDS011;3968;51.424;6.788;2022-08-05T05:25:28;13.60;;;11.18;;
7845;SDS011;3968;51.424;6.788;2022-08-05T05:27:55;15.32;;;12.25;;
7845;SDS011;3968;51.424;6.788;2022-08-05T05:30:21;15.43;;;11.85;;
7845;SDS011;3968;51.424;6.788;2022-08-05T05:32:47;18.63;;;13.48;;
7845;SDS011;3968;51.424;6.788;2022-08-05T05:35:13;19.10;;;12.88;;
7845;SDS011;3968;51.424;6.788;2022-08-05T05:37:50;15.25;;;11.57;;
7845;SDS011;3968;51.424;6.788;2022-08-05T05:40:21;13.82;;;12.15;;
7845;SDS011;3968;51.424;6.788;2022-08-05T05:42:48;17.45;;;12.00;;
7845;SDS011;3968;51.424;6.788;2022-08-05T05:45:15;19.15;;;11.98;;
7845;SDS011;3968;51.424;6.788;2022-08-05T05:47:41;19.65;;;11.30;;
7845;SDS011;3968;51.424;6.788;2022-08-05T05:50:10;12.07;;;10.88;;
7845;SDS011;3968;51.424;6.788;2022-08-05T05:52:38;14.00;;;11.45;;
7845;SDS011;3968;51.424;6.788;2022-08-05T05:55:05;14.57;;;11.02;;
7845;SDS011;3968;51.424;6.788;2022-08-05T05:57:33;14.50;;;10.98;;
7845;SDS011;3968;51.424;6.788;2022-08-05T05:59:59;15.88;;;11.90;;
7845;SDS011;3968;51.424;6.788;2022-08-05T06:02:24;14.18;;;11.38;;
7845;SDS011;3968;51.424;6.788;2022-08-05T06:04:50;14.10;;;11.60;;
7845;SDS011;3968;51.424;6.788;2022-08-05T06:07:16;13.43;;;10.88;;
7845;SDS011;3968;51.424;6.788;2022-08-05T06:09:41;16.40;;;11.88;;
7845;SDS011;3968;51.424;6.788;2022-08-05T06:12:07;15.75;;;11.18;;
7845;SDS011;3968;51.424;6.788;2022-08-05T06:14:33;17.02;;;11.63;;
7845;SDS011;3968;51.424;6.788;2022-08-05T06:16:59;16.30;;;11.50;;
7845;SDS011;3968;51.424;6.788;2022-08-05T06:19:25;12.65;;;10.30;;
7845;SDS011;3968;51.424;6.788;2022-08-05T06:21:51;11.48;;;8.98;;
7845;SDS011;3968;51.424;6.788;2022-08-05T06:24:17;12.05;;;8.48;;
7845;SDS011;3968;51.424;6.788;2022-08-05T06:26:43;17.10;;;8.73;;
7845;SDS011;3968;51.424;6.788;2022-08-05T06:29:09;15.02;;;9.52;;
7845;SDS011;3968;51.424;6.788;2022-08-05T06:31:35;13.93;;;8.77;;
7845;SDS011;3968;51.424;6.788;2022-08-05T06:34:02;14.18;;;8.60;;
7845;SDS011;3968;51.424;6.788;2022-08-05T06:36:27;13.00;;;7.50;;
7845;SDS011;3968;51.424;6.788;2022-08-05T06:38:53;15.02;;;8.23;;
7845;SDS011;3968;51.424;6.788;2022-08-05T06:41:19;14.50;;;8.27;;
7845;SDS011;3968;51.424;6.788;2022-08-05T06:43:45;11.80;;;7.50;;
7845;SDS011;3968;51.424;6.788;2022-08-05T06:46:12;16.13;;;7.55;;
7845;SDS011;3968;51.424;6.788;2022-08-05T06:48:37;12.75;;;8.10;;
7845;SDS011;3968;51.424;6.788;2022-08-05T06:51:03;12.85;;;7.38;;
7845;SDS011;3968;51.424;6.788;2022-08-05T06:53:29;12.57;;;7.13;;
7845;SDS011;3968;51.424;6.788;2022-08-05T06:55:58;24.67;;;7.97;;
7845;SDS011;3968;51.424;6.788;2022-08-05T06:58:27;7.40;;;6.20;;
7845;SDS011;3968;51.424;6.788;2022-08-05T07:00:53;15.07;;;6.65;;
7845;SDS011;3968;51.424;6.788;2022-08-05T07:03:18;9.90;;;6.80;;
7845;SDS011;3968;51.424;6.788;2022-08-05T07:05:44;17.13;;;7.50;;
7845;SDS011;3968;51.424;6.788;2022-08-05T07:08:10;12.00;;;7.10;;
7845;SDS011;3968;51.424;6.788;2022-08-05T07:10:35;11.65;;;7.75;;
7845;SDS011;3968;51.424;6.788;2022-08-05T07:13:01;33.00;;;11.85;;
7845;SDS011;3968;51.424;6.788;2022-08-05T07:15:45;9.60;;;6.65;;
7845;SDS011;3968;51.424;6.788;2022-08-05T07:18:29;11.63;;;6.97;;
7845;SDS011;3968;51.424;6.788;2022-08-05T07:20:55;8.48;;;6.47;;
7845;SDS011;3968;51.424;6.788;2022-08-05T07:23:20;8.48;;;6.15;;
7845;SDS011;3968;51.424;6.788;2022-08-05T07:25:46;8.15;;;6.10;;
7845;SDS011;3968;51.424;6.788;2022-08-05T07:28:12;12.10;;;6.03;;
7845;SDS011;3968;51.424;6.788;2022-08-05T07:30:38;14.43;;;6.00;;
7845;SDS011;3968;51.424;6.788;2022-08-05T07:33:05;12.65;;;5.97;;
7845;SDS011;3968;51.424;6.788;2022-08-05T07:35:34;11.75;;;5.75;;
7845;SDS011;3968;51.424;6.788;2022-08-05T07:38:01;16.67;;;5.75;;
7845;SDS011;3968;51.424;6.788;2022-08-05T07:40:26;12.07;;;5.43;;
7845;SDS011;3968;51.424;6.788;2022-08-05T07:42:52;10.43;;;4.90;;
7845;SDS011;3968;51.424;6.788;2022-08-05T07:45:17;7.38;;;5.00;;
7845;SDS011;3968;51.424;6.788;2022-08-05T07:47:44;6.25;;;4.43;;
7845;SDS011;3968;51.424;6.788;2022-08-05T07:50:11;7.93;;;5.28;;
7845;SDS011;3968;51.424;6.788;2022-08-05T07:52:38;13.02;;;5.25;;
7845;SDS011;3968;51.424;6.788;2022-08-05T07:55:05;8.30;;;5.25;;
7845;SDS011;3968;51.424;6.788;2022-08-05T07:57:31;8.90;;;5.20;;
7845;SDS011;3968;51.424;6.788;2022-08-05T07:59:56;7.68;;;4.80;;
7845;SDS011;3968;51.424;6.788;2022-08-05T08:02:23;8.82;;;4.05;;
7845;SDS011;3968;51.424;6.788;2022-08-05T08:04:52;9.52;;;4.75;;
7845;SDS011;3968;51.424;6.788;2022-08-05T08:07:18;8.38;;;4.70;;
7845;SDS011;3968;51.424;6.788;2022-08-05T08:09:45;9.65;;;4.10;;
7845;SDS011;3968;51.424;6.788;2022-08-05T08:12:12;11.77;;;6.47;;
7845;SDS011;3968;51.424;6.788;2022-08-05T08:14:38;16.63;;;5.43;;
7845;SDS011;3968;51.424;6.788;2022-08-05T08:17:04;11.57;;;4.80;;
7845;SDS011;3968;51.424;6.788;2022-08-05T08:19:34;11.27;;;5.47;;
7845;SDS011;3968;51.424;6.788;2022-08-05T08:22:01;9.48;;;4.88;;
7845;SDS011;3968;51.424;6.788;2022-08-05T08:24:27;13.15;;;4.38;;
7845;SDS011;3968;51.424;6.788;2022-08-05T08:26:54;7.07;;;4.18;;
7845;SDS011;3968;51.424;6.788;2022-08-05T08:29:20;6.38;;;4.22;;
7845;SDS011;3968;51.424;6.788;2022-08-05T08:31:45;8.82;;;4.25;;
7845;SDS011;3968;51.424;6.788;2022-08-05T08:34:11;7.72;;;4.05;;
7845;SDS011;3968;51.424;6.788;2022-08-05T08:36:37;11.48;;;4.25;;
7845;SDS011;3968;51.424;6.788;2022-08-05T08:39:03;10.65;;;4.35;;
7845;SDS011;3968;51.424;6.788;2022-08-05T08:41:29;8.40;;;4.30;;
7845;SDS011;3968;51.424;6.788;2022-08-05T08:43:59;6.35;;;3.85;;
7845;SDS011;3968;51.424;6.788;2022-08-05T08:46:26;4.80;;;3.78;;
7845;SDS011;3968;51.424;6.788;2022-08-05T08:48:55;40.58;;;9.35;;
7845;SDS011;3968;51.424;6.788;2022-08-05T08:51:22;20.73;;;6.30;;
7845;SDS011;3968;51.424;6.788;2022-08-05T08:53:48;16.98;;;6.25;;
7845;SDS011;3968;51.424;6.788;2022-08-05T08:56:15;54.45;;;10.63;;
7845;SDS011;3968;51.424;6.788;2022-08-05T08:58:41;21.98;;;6.00;;
7845;SDS011;3968;51.424;6.788;2022-08-05T09:01:07;10.10;;;5.22;;
7845;SDS011;3968;51.424;6.788;2022-08-05T09:03:33;11.77;;;4.93;;
7845;SDS011;3968;51.424;6.788;2022-08-05T09:06:00;10.43;;;4.28;;
7845;SDS011;3968;51.424;6.788;2022-08-05T09:08:25;8.55;;;4.00;;
7845;SDS011;3968;51.424;6.788;2022-08-05T09:10:51;8.20;;;3.72;;
7845;SDS011;3968;51.424;6.788;2022-08-05T09:13:17;11.38;;;4.82;;
7845;SDS011;3968;51.424;6.788;2022-08-05T09:15:43;7.25;;;4.05;;
7845;SDS011;3968;51.424;6.788;2022-08-05T09:18:10;6.38;;;3.80;;
7845;SDS011;3968;51.424;6.788;2022-08-05T09:20:36;7.57;;;3.97;;
7845;SDS011;3968;51.424;6.788;2022-08-05T09:23:03;12.20;;;4.38;;
7845;SDS011;3968;51.424;6.788;2022-08-05T09:25:31;8.65;;;4.38;;
7845;SDS011;3968;51.424;6.788;2022-08-05T09:28:06;6.63;;;3.40;;
7845;SDS011;3968;51.424;6.788;2022-08-05T09:30:34;7.80;;;3.75;;
7845;SDS011;3968;51.424;6.788;2022-08-05T09:33:00;6.97;;;4.88;;
7845;SDS011;3968;51.424;6.788;2022-08-05T09:35:26;5.53;;;3.80;;
7845;SDS011;3968;51.424;6.788;2022-08-05T09:37:52;7.75;;;4.18;;
7845;SDS011;3968;51.424;6.788;2022-08-05T09:40:29;9.35;;;4.07;;
7845;SDS011;3968;51.424;6.788;2022-08-05T09:43:04;10.32;;;4.38;;
7845;SDS011;3968;51.424;6.788;2022-08-05T09:45:38;8.15;;;3.65;;
7845;SDS011;3968;51.424;6.788;2022-08-05T09:48:27;7.88;;;3.60;;
7845;SDS011;3968;51.424;6.788;2022-08-05T09:50:54;8.32;;;3.97;;
7845;SDS011;3968;51.424;6.788;2022-08-05T09:53:23;5.53;;;3.95;;
7845;SDS011;3968;51.424;6.788;2022-08-05T09:55:53;5.20;;;3.95;;
7845;SDS011;3968;51.424;6.788;2022-08-05T09:58:25;8.57;;;4.53;;
7845;SDS011;3968;51.424;6.788;2022-08-05T10:03:17;369.83;;;38.22;;
7845;SDS011;3968;51.424;6.788;2022-08-05T10:05:43;9.23;;;3.15;;
7845;SDS011;3968;51.424;6.788;2022-08-05T10:08:08;7.20;;;3.20;;
7845;SDS011;3968;51.424;6.788;2022-08-05T10:13:10;8.38;;;4.03;;
7845;SDS011;3968;51.424;6.788;2022-08-05T10:15:39;5.88;;;2.83;;
7845;SDS011;3968;51.424;6.788;2022-08-05T10:23:32;4.80;;;2.72;;
7845;SDS011;3968;51.424;6.788;2022-08-05T10:26:01;7.60;;;3.40;;
7845;SDS011;3968;51.424;6.788;2022-08-05T10:28:29;6.60;;;2.72;;
7845;SDS011;3968;51.424;6.788;2022-08-05T10:31:04;4.30;;;2.58;;
7845;SDS011;3968;51.424;6.788;2022-08-05T10:33:31;4.43;;;2.40;;
7845;SDS011;3968;51.424;6.788;2022-08-05T10:35:58;4.72;;;2.38;;
7845;SDS011;3968;51.424;6.788;2022-08-05T10:38:25;6.85;;;2.50;;
7845;SDS011;3968;51.424;6.788;2022-08-05T10:44:06;3.25;;;2.00;;
7845;SDS011;3968;51.424;6.788;2022-08-05T10:46:46;3.70;;;1.73;;
7845;SDS011;3968;51.424;6.788;2022-08-05T10:49:16;3.88;;;1.90;;
7845;SDS011;3968;51.424;6.788;2022-08-05T10:51:50;4.80;;;1.80;;
7845;SDS011;3968;51.424;6.788;2022-08-05T10:54:21;4.45;;;2.25;;
7845;SDS011;3968;51.424;6.788;2022-08-05T10:56:49;8.43;;;2.70;;
7845;SDS011;3968;51.424;6.788;2022-08-05T10:59:18;6.70;;;2.35;;
7845;SDS011;3968;51.424;6.788;2022-08-05T11:01:54;6.63;;;2.17;;
7845;SDS011;3968;51.424;6.788;2022-08-05T11:04:42;2.35;;;1.83;;
7845;SDS011;3968;51.424;6.788;2022-08-05T11:07:12;9.32;;;2.03;;
7845;SDS011;3968;51.424;6.788;2022-08-05T11:15:05;4.40;;;2.05;;
7845;SDS011;3968;51.424;6.788;2022-08-05T11:17:32;3.15;;;2.05;;
7845;SDS011;3968;51.424;6.788;2022-08-05T11:20:03;7.75;;;2.30;;
7845;SDS011;3968;51.424;6.788;2022-08-05T11:22:48;5.82;;;2.15;;
7845;SDS011;3968;51.424;6.788;2022-08-05T11:33:32;3.13;;;2.17;;
7845;SDS011;3968;51.424;6.788;2022-08-05T11:36:12;4.05;;;2.70;;
7845;SDS011;3968;51.424;6.788;2022-08-05T11:49:12;5.10;;;2.30;;
7845;SDS011;3968;51.424;6.788;2022-08-05T11:51:40;8.43;;;2.60;;
7845;SDS011;3968;51.424;6.788;2022-08-05T11:54:08;4.32;;;2.60;;
7845;SDS011;3968;51.424;6.788;2022-08-05T11:56:45;7.50;;;2.90;;
7845;SDS011;3968;51.424;6.788;2022-08-05T11:59:15;7.43;;;2.95;;
7845;SDS011;3968;51.424;6.788;2022-08-05T12:04:23;8.07;;;3.33;;
7845;SDS011;3968;51.424;6.788;2022-08-05T12:06:49;5.40;;;2.90;;
7845;SDS011;3968;51.424;6.788;2022-08-05T12:09:24;7.78;;;3.35;;
7845;SDS011;3968;51.424;6.788;2022-08-05T12:11:52;7.40;;;3.63;;
7845;SDS011;3968;51.424;6.788;2022-08-05T12:14:18;7.88;;;3.38;;
7845;SDS011;3968;51.424;6.788;2022-08-05T12:16:44;5.93;;;2.70;;
7845;SDS011;3968;51.424;6.788;2022-08-05T12:19:13;6.75;;;2.95;;
7845;SDS011;3968;51.424;6.788;2022-08-05T12:21:42;6.07;;;3.22;;
7845;SDS011;3968;51.424;6.788;2022-08-05T12:24:18;10.35;;;3.13;;
7845;SDS011;3968;51.424;6.788;2022-08-05T12:26:49;5.93;;;2.65;;
7845;SDS011;3968;51.424;6.788;2022-08-05T12:31:47;3.33;;;2.13;;
7845;SDS011;3968;51.424;6.788;2022-08-05T12:34:17;8.75;;;3.05;;
7845;SDS011;3968;51.424;6.788;2022-08-05T12:36:45;7.00;;;2.95;;
7845;SDS011;3968;51.424;6.788;2022-08-05T12:39:12;5.45;;;3.03;;
7845;SDS011;3968;51.424;6.788;2022-08-05T12:41:38;5.75;;;2.92;;
7845;SDS011;3968;51.424;6.788;2022-08-05T12:44:06;6.70;;;3.38;;
7845;SDS011;3968;51.424;6.788;2022-08-05T12:46:36;8.27;;;3.40;;
7845;SDS011;3968;51.424;6.788;2022-08-05T12:51:47;5.05;;;2.78;;
7845;SDS011;3968;51.424;6.788;2022-08-05T12:54:24;4.82;;;2.97;;
7845;SDS011;3968;51.424;6.788;2022-08-05T12:56:56;4.80;;;3.00;;
7845;SDS011;3968;51.424;6.788;2022-08-05T12:59:24;6.13;;;3.20;;
7845;SDS011;3968;51.424;6.788;2022-08-05T13:02:02;6.38;;;3.33;;
7845;SDS011;3968;51.424;6.788;2022-08-05T13:04:35;4.60;;;2.80;;
7845;SDS011;3968;51.424;6.788;2022-08-05T13:07:05;5.70;;;3.10;;
7845;SDS011;3968;51.424;6.788;2022-08-05T13:09:36;7.10;;;2.83;;
7845;SDS011;3968;51.424;6.788;2022-08-05T13:12:04;4.97;;;2.50;;
7845;SDS011;3968;51.424;6.788;2022-08-05T13:14:57;6.03;;;2.40;;
7845;SDS011;3968;51.424;6.788;2022-08-05T13:17:27;3.50;;;2.10;;
7845;SDS011;3968;51.424;6.788;2022-08-05T13:20:01;4.97;;;2.13;;
7845;SDS011;3968;51.424;6.788;2022-08-05T13:22:33;9.45;;;2.30;;
7845;SDS011;3968;51.424;6.788;2022-08-05T13:25:04;4.97;;;2.22;;
7845;SDS011;3968;51.424;6.788;2022-08-05T13:27:33;5.70;;;2.70;;
7845;SDS011;3968;51.424;6.788;2022-08-05T13:30:03;5.22;;;3.70;;
7845;SDS011;3968;51.424;6.788;2022-08-05T13:32:31;6.22;;;2.20;;
7845;SDS011;3968;51.424;6.788;2022-08-05T13:34:57;3.17;;;2.00;;
7845;SDS011;3968;51.424;6.788;2022-08-05T13:37:22;2.92;;;2.30;;
7845;SDS011;3968;51.424;6.788;2022-08-05T13:39:51;2.28;;;2.08;;
7845;SDS011;3968;51.424;6.788;2022-08-05T13:42:18;4.50;;;2.03;;
7845;SDS011;3968;51.424;6.788;2022-08-05T13:44:44;5.43;;;1.95;;
7845;SDS011;3968;51.424;6.788;2022-08-05T13:47:10;5.13;;;2.03;;
7845;SDS011;3968;51.424;6.788;2022-08-05T13:49:36;4.20;;;1.73;;
7845;SDS011;3968;51.424;6.788;2022-08-05T13:52:08;3.63;;;1.63;;
7845;SDS011;3968;51.424;6.788;2022-08-05T13:54:35;6.95;;;2.75;;
7845;SDS011;3968;51.424;6.788;2022-08-05T13:57:01;9.25;;;5.60;;
7845;SDS011;3968;51.424;6.788;2022-08-05T13:59:26;5.50;;;2.20;;
7845;SDS011;3968;51.424;6.788;2022-08-05T14:01:53;5.32;;;2.03;;
7845;SDS011;3968;51.424;6.788;2022-08-05T14:04:19;9.00;;;2.08;;
7845;SDS011;3968;51.424;6.788;2022-08-05T14:07:03;4.85;;;1.90;;
7845;SDS011;3968;51.424;6.788;2022-08-05T14:09:29;3.05;;;2.20;;
7845;SDS011;3968;51.424;6.788;2022-08-05T14:11:54;6.72;;;2.75;;
7845;SDS011;3968;51.424;6.788;2022-08-05T14:14:20;2.53;;;2.00;;
7845;SDS011;3968;51.424;6.788;2022-08-05T14:16:46;5.88;;;2.05;;
7845;SDS011;3968;51.424;6.788;2022-08-05T14:19:11;3.50;;;2.22;;
7845;SDS011;3968;51.424;6.788;2022-08-05T14:21:37;4.45;;;1.90;;
7845;SDS011;3968;51.424;6.788;2022-08-05T14:24:02;3.38;;;1.70;;
7845;SDS011;3968;51.424;6.788;2022-08-05T14:26:28;4.55;;;1.83;;
7845;SDS011;3968;51.424;6.788;2022-08-05T14:28:54;3.88;;;1.55;;
7845;SDS011;3968;51.424;6.788;2022-08-05T14:31:19;4.82;;;1.70;;
7845;SDS011;3968;51.424;6.788;2022-08-05T14:33:46;4.78;;;1.50;;
7845;SDS011;3968;51.424;6.788;2022-08-05T14:36:12;2.17;;;1.38;;
7845;SDS011;3968;51.424;6.788;2022-08-05T14:38:37;4.93;;;1.55;;
7845;SDS011;3968;51.424;6.788;2022-08-05T14:41:03;2.60;;;1.23;;
7845;SDS011;3968;51.424;6.788;2022-08-05T14:43:29;3.88;;;1.52;;
7845;SDS011;3968;51.424;6.788;2022-08-05T14:45:55;2.83;;;1.20;;
7845;SDS011;3968;51.424;6.788;2022-08-05T14:48:21;2.42;;;1.00;;
7845;SDS011;3968;51.424;6.788;2022-08-05T14:50:46;5.07;;;1.20;;
7845;SDS011;3968;51.424;6.788;2022-08-05T14:53:12;4.63;;;2.05;;
7845;SDS011;3968;51.424;6.788;2022-08-05T14:55:38;2.97;;;1.23;;
7845;SDS011;3968;51.424;6.788;2022-08-05T14:58:03;8.05;;;2.88;;
7845;SDS011;3968;51.424;6.788;2022-08-05T15:00:29;5.20;;;1.70;;
7845;SDS011;3968;51.424;6.788;2022-08-05T15:02:55;3.30;;;1.60;;
7845;SDS011;3968;51.424;6.788;2022-08-05T15:05:20;4.75;;;1.55;;
7845;SDS011;3968;51.424;6.788;2022-08-05T15:07:46;6.22;;;2.03;;
7845;SDS011;3968;51.424;6.788;2022-08-05T15:10:11;5.70;;;1.55;;
7845;SDS011;3968;51.424;6.788;2022-08-05T15:12:37;2.42;;;1.27;;
7845;SDS011;3968;51.424;6.788;2022-08-05T15:15:03;4.32;;;1.13;;
7845;SDS011;3968;51.424;6.788;2022-08-05T15:17:29;2.47;;;1.25;;
7845;SDS011;3968;51.424;6.788;2022-08-05T15:19:55;4.78;;;1.27;;
7845;SDS011;3968;51.424;6.788;2022-08-05T15:22:20;1.48;;;1.10;;
7845;SDS011;3968;51.424;6.788;2022-08-05T15:24:46;2.25;;;1.30;;
7845;SDS011;3968;51.424;6.788;2022-08-05T15:27:12;5.47;;;1.15;;
7845;SDS011;3968;51.424;6.788;2022-08-05T15:29:37;6.43;;;1.60;;
7845;SDS011;3968;51.424;6.788;2022-08-05T15:32:03;5.43;;;1.27;;
7845;SDS011;3968;51.424;6.788;2022-08-05T15:34:29;2.22;;;1.33;;
7845;SDS011;3968;51.424;6.788;2022-08-05T15:36:55;4.28;;;1.40;;
7845;SDS011;3968;51.424;6.788;2022-08-05T15:39:20;1.95;;;1.00;;
7845;SDS011;3968;51.424;6.788;2022-08-05T15:41:46;1.45;;;1.00;;
7845;SDS011;3968;51.424;6.788;2022-08-05T15:44:12;2.55;;;0.90;;
7845;SDS011;3968;51.424;6.788;2022-08-05T15:46:38;3.58;;;1.20;;
7845;SDS011;3968;51.424;6.788;2022-08-05T15:49:03;3.47;;;1.33;;
7845;SDS011;3968;51.424;6.788;2022-08-05T15:51:29;5.55;;;1.25;;
7845;SDS011;3968;51.424;6.788;2022-08-05T15:53:55;3.33;;;1.40;;
7845;SDS011;3968;51.424;6.788;2022-08-05T15:56:20;4.43;;;1.13;;
7845;SDS011;3968;51.424;6.788;2022-08-05T15:58:46;4.05;;;1.48;;
7845;SDS011;3968;51.424;6.788;2022-08-05T16:01:12;2.78;;;1.50;;
7845;SDS011;3968;51.424;6.788;2022-08-05T16:03:38;4.45;;;1.60;;
7845;SDS011;3968;51.424;6.788;2022-08-05T16:06:05;2.28;;;1.35;;
7845;SDS011;3968;51.424;6.788;2022-08-05T16:08:31;4.28;;;1.20;;
7845;SDS011;3968;51.424;6.788;2022-08-05T16:10:57;3.40;;;1.17;;
7845;SDS011;3968;51.424;6.788;2022-08-05T16:13:22;3.20;;;1.55;;